Time;durP1;ratioP1;P1;durP2;ratioP2;P2;SDS_P1;SDS_P2;PMS_P1;PMS_P2;Temp;Humidity;BMP_temperature;BMP_pressure;BME280_temperature;BME280_humidity;BME280_pressure;Samples;Min_cycle;Max_cycle;Signal;HPM_P1;HPM_P2
2021/11/02 00:01:37;;;;;;;2.67;1.23;;;;;;;7.05;98.69;99460.59;5041180;28;20049;-85
2021/11/02 00:04:05;;;;;;;2.95;1.13;;;;;;;7.05;98.98;99457.97;5047956;28;20037;-84
2021/11/02 00:06:33;;;;;;;4.95;1.30;;;;;;;7.03;98.79;99455.41;5034714;28;20067;-86
2021/11/02 00:09:01;;;;;;;4.57;1.63;;;;;;;7.01;98.52;99458.91;5041091;28;20076;-83
2021/11/02 00:11:28;;;;;;;5.15;1.33;;;;;;;6.94;98.48;99461.59;5035820;28;20092;-85
2021/11/02 00:14:04;;;;;;;6.72;1.48;;;;;;;6.88;98.91;99458.22;5054669;28;20072;-85
2021/11/02 00:16:31;;;;;;;3.47;1.30;;;;;;;6.82;99.10;99455.69;5037864;28;20470;-86
2021/11/02 00:19:01;;;;;;;3.95;1.90;;;;;;;6.77;99.17;99458.34;5053984;28;20017;-85
2021/11/02 00:21:36;;;;;;;2.70;1.42;;;;;;;6.74;99.65;99458.38;5034033;28;20063;-84
2021/11/02 00:24:11;;;;;;;9.18;2.28;;;;;;;6.68;99.68;99450.69;5046256;28;20033;-84
2021/11/02 00:26:39;;;;;;;4.20;1.80;;;;;;;6.69;100.00;99450.66;5059329;28;20041;-83
2021/11/02 00:29:06;;;;;;;0.93;0.80;;;;;;;6.69;99.71;99445.44;5032876;28;20041;-85
2021/11/02 00:31:32;;;;;;;3.70;1.30;;;;;;;6.66;99.79;99444.63;5046963;28;20041;-85
2021/11/02 00:34:00;;;;;;;2.15;1.13;;;;;;;6.67;100.00;99436.78;5040057;28;20045;-85
2021/11/02 00:36:27;;;;;;;2.63;0.85;;;;;;;6.65;100.00;99435.09;5036147;28;20057;-86
2021/11/02 00:38:54;;;;;;;1.95;1.50;;;;;;;6.64;100.00;99442.03;5052200;28;20056;-84
2021/11/02 00:41:21;;;;;;;5.65;1.27;;;;;;;6.65;100.00;99440.28;5035286;28;20049;-85
2021/11/02 00:43:48;;;;;;;4.50;2.05;;;;;;;6.64;100.00;99436.00;5058553;28;20045;-85
2021/11/02 00:46:16;;;;;;;3.92;1.10;;;;;;;6.64;100.00;99434.25;5041136;28;20020;-85
2021/11/02 00:48:42;;;;;;;4.82;1.73;;;;;;;6.62;100.00;99439.47;5042447;28;20068;-86
2021/11/02 00:51:09;;;;;;;5.57;1.52;;;;;;;6.65;100.00;99442.91;5045139;28;20053;-85
2021/11/02 00:53:36;;;;;;;4.38;1.45;;;;;;;6.67;100.00;99441.16;5051734;28;20053;-84
2021/11/02 00:56:03;;;;;;;3.83;1.45;;;;;;;6.71;100.00;99435.88;5034918;28;20049;-85
2021/11/02 00:58:30;;;;;;;3.60;1.48;;;;;;;6.73;100.00;99433.28;5050757;28;20049;-85
2021/11/02 01:00:57;;;;;;;3.33;1.50;;;;;;;6.71;100.00;99429.81;5041681;28;20049;-85
2021/11/02 01:03:24;;;;;;;3.22;1.30;;;;;;;6.66;100.00;99419.47;5033249;28;20048;-85
2021/11/02 01:05:51;;;;;;;3.03;1.30;;;;;;;6.62;100.00;99417.78;5045637;28;20492;-85
2021/11/02 01:08:22;;;;;;;3.55;0.88;;;;;;;6.56;100.00;99418.75;5036248;28;20679;-84
2021/11/02 01:10:49;;;;;;;4.97;1.50;;;;;;;6.56;100.00;99418.75;5052186;28;20100;-84
2021/11/02 01:13:19;;;;;;;3.95;1.67;;;;;;;6.55;100.00;99414.41;5034278;28;20040;-86
2021/11/02 01:15:46;;;;;;;5.97;1.23;;;;;;;6.53;100.00;99412.72;5049865;28;20071;-85
2021/11/02 01:18:14;;;;;;;3.95;1.50;;;;;;;6.48;100.00;99415.38;5034946;28;20503;-85
2021/11/02 01:20:42;;;;;;;2.38;1.30;;;;;;;6.46;100.00;99411.94;5052845;28;20045;-86
2021/11/02 01:23:09;;;;;;;5.43;1.98;;;;;;;6.45;100.00;99412.78;5036518;28;20055;-85
2021/11/02 01:25:39;;;;;;;4.85;3.85;;;;;;;6.46;100.00;99409.31;5038374;28;20037;-86
2021/11/02 01:28:09;;;;;;;7.63;2.85;;;;;;;6.43;100.00;99396.38;5049620;28;20045;-84
2021/11/02 01:30:36;;;;;;;3.78;2.53;;;;;;;6.39;100.00;99398.16;5045205;28;20071;-84
2021/11/02 01:33:03;;;;;;;5.47;2.40;;;;;;;6.36;100.00;99402.50;5044209;28;20049;-84
2021/11/02 01:35:30;;;;;;;5.28;2.13;;;;;;;6.32;100.00;99406.03;5045084;28;20044;-86
2021/11/02 01:37:57;;;;;;;5.53;2.08;;;;;;;6.29;100.00;99405.19;5052872;28;20060;-85
2021/11/02 01:40:25;;;;;;;3.88;2.15;;;;;;;6.28;100.00;99400.88;5045430;28;20041;-84
2021/11/02 01:42:52;;;;;;;5.57;2.30;;;;;;;6.25;100.00;99410.44;5051514;28;20101;-85
2021/11/02 01:45:18;;;;;;;3.83;2.17;;;;;;;6.27;100.00;99412.16;5049857;28;20053;-84
2021/11/02 01:47:49;;;;;;;2.85;1.45;;;;;;;6.27;100.00;99403.47;5050492;28;20053;-85
2021/11/02 01:50:18;;;;;;;9.15;3.60;;;;;;;6.26;100.00;99406.97;5047092;28;20068;-84
2021/11/02 01:52:46;;;;;;;6.18;2.00;;;;;;;6.25;100.00;99405.25;5036039;28;20069;-84
2021/11/02 01:55:17;;;;;;;4.60;1.33;;;;;;;6.19;100.00;99403.59;5033056;28;20788;-84
2021/11/02 01:57:46;;;;;;;4.22;1.67;;;;;;;6.15;100.00;99403.63;5052922;28;20628;-83
2021/11/02 02:00:17;;;;;;;5.82;2.92;;;;;;;6.12;100.00;99405.38;5042170;28;20065;-85
2021/11/02 02:03:05;;;;;;;5.30;2.05;;;;;;;6.12;100.00;99404.53;5037565;28;20056;-83
2021/11/02 02:05:47;;;;;;;2.67;1.80;;;;;;;6.10;100.00;99406.25;5054030;28;20557;-85
2021/11/02 02:09:04;;;;;;;2.13;1.48;;;;;;;6.07;100.00;99401.97;5035346;28;20518;-83
2021/11/02 02:12:07;;;;;;;2.80;1.55;;;;;;;6.03;100.00;99396.81;5042909;28;20135;-83
2021/11/02 02:14:44;;;;;;;2.45;1.83;;;;;;;6.00;100.00;99399.44;5045693;28;20037;-84
2021/11/02 02:17:52;;;;;;;4.70;1.70;;;;;;;5.97;100.00;99403.78;5034342;28;20050;-85
2021/11/02 02:20:42;;;;;;;3.22;1.40;;;;;;;5.95;100.00;99402.91;5045502;28;20052;-85
2021/11/02 02:23:44;;;;;;;8.45;2.17;;;;;;;5.92;100.00;99399.53;5049106;28;20835;-85
2021/11/02 02:26:28;;;;;;;4.88;1.60;;;;;;;5.89;100.00;99402.13;5034520;28;20041;-85
2021/11/02 02:28:59;;;;;;;6.03;1.45;;;;;;;5.85;100.00;99400.44;5056055;28;20063;-85
2021/11/02 02:31:31;;;;;;;1.75;1.30;;;;;;;5.83;100.00;99395.25;5029396;28;20104;-84
2021/11/02 02:33:59;;;;;;;4.18;1.45;;;;;;;5.80;100.00;99397.88;5044116;28;20033;-85
2021/11/02 02:36:34;;;;;;;10.13;2.63;;;;;;;5.80;100.00;99390.09;5042466;28;20757;-85
2021/11/02 02:39:03;;;;;;;3.70;1.90;;;;;;;5.78;100.00;99394.44;5045836;28;20057;-83
2021/11/02 02:41:31;;;;;;;5.60;2.05;;;;;;;5.76;100.00;99397.06;5031752;28;20041;-85
2021/11/02 02:43:59;;;;;;;2.60;1.95;;;;;;;5.74;100.00;99387.56;5034523;28;20470;-85
2021/11/02 02:46:31;;;;;;;4.20;2.08;;;;;;;5.70;100.00;99385.88;5030128;28;20052;-84
2021/11/02 02:48:58;;;;;;;2.78;1.23;;;;;;;5.67;100.00;99385.88;5050773;28;20045;-85
2021/11/02 02:51:28;;;;;;;4.68;1.40;;;;;;;5.66;100.00;99384.16;5040785;28;20033;-85
2021/11/02 02:53:56;;;;;;;3.38;2.05;;;;;;;5.63;100.00;99390.25;5049673;28;20106;-83
2021/11/02 02:56:28;;;;;;;4.25;1.95;;;;;;;5.61;100.00;99384.22;5038476;28;20488;-85
2021/11/02 02:58:58;;;;;;;7.78;1.63;;;;;;;5.60;100.00;99378.16;5043960;28;20072;-85
2021/11/02 03:01:26;;;;;;;2.60;1.83;;;;;;;5.65;100.00;99382.47;5029596;28;20045;-84
2021/11/02 03:03:58;;;;;;;3.33;1.95;;;;;;;5.66;100.00;99381.56;5050911;28;20049;-84
2021/11/02 03:06:35;;;;;;;7.82;2.20;;;;;;;5.60;100.00;99375.56;5055171;28;20189;-85
2021/11/02 03:09:05;;;;;;;4.60;1.80;;;;;;;5.58;100.00;99386.81;5033404;28;20107;-85
2021/11/02 03:11:35;;;;;;;2.10;1.65;;;;;;;5.60;100.00;99383.34;5035939;28;20046;-85
2021/11/02 03:14:08;;;;;;;1.77;1.63;;;;;;;5.59;100.00;99384.25;5032847;28;20109;-85
2021/11/02 03:16:46;;;;;;;7.03;2.60;;;;;;;5.58;100.00;99382.50;5050364;28;20056;-85
2021/11/02 03:20:02;;;;;;;4.35;2.58;;;;;;;5.55;100.00;99374.72;5033862;28;20132;-84
2021/11/02 03:45:06;;;;;;;5.03;1.77;;;;;;;5.38;100.00;99387.00;5037583;28;20041;-84
2021/11/02 03:50:56;;;;;;;5.07;2.67;;;;;;;5.28;100.00;99386.25;4979706;28;20054;-85
2021/11/02 03:56:19;;;;;;;3.70;2.25;;;;;;;5.28;100.00;99381.91;5050016;28;20063;-85
2021/11/02 03:59:02;;;;;;;4.00;2.00;;;;;;;5.27;100.00;99387.97;5034637;28;20053;-84
2021/11/02 04:01:45;;;;;;;2.65;2.03;;;;;;;5.25;100.00;99384.53;5039421;28;20056;-86
2021/11/02 04:24:13;;;;;;;6.70;3.30;;;;;;;5.14;100.00;99391.53;5035842;28;20192;-84
2021/11/02 04:27:05;;;;;;;7.63;3.00;;;;;;;5.15;100.00;99388.06;5047909;28;20055;-84
2021/11/02 04:35:40;;;;;;;6.05;2.88;;;;;;;5.08;100.00;99389.81;5027691;28;19929;-84
2021/11/02 05:47:22;;;;;;;9.05;5.13;;;;;;;4.74;100.00;99404.72;5045321;28;20055;-86
2021/11/02 05:49:59;;;;;;;6.63;4.03;;;;;;;4.74;100.00;99409.91;5051130;28;20723;-86
2021/11/02 05:57:59;;;;;;;7.57;3.75;;;;;;;4.79;100.00;99405.56;5034508;28;20076;-85
2021/11/02 06:00:31;;;;;;;6.28;3.92;;;;;;;4.79;100.00;99402.97;5045191;28;20049;-86
2021/11/02 06:06:00;;;;;;;5.60;4.28;;;;;;;4.83;100.00;99401.22;4968900;28;20042;-86
2021/11/02 06:29:10;;;;;;;7.50;4.82;;;;;;;5.40;100.00;99414.66;5067559;28;20059;-85
2021/11/02 06:31:39;;;;;;;7.15;4.05;;;;;;;5.50;100.00;99415.47;5032169;28;20064;-83
2021/11/02 06:34:13;;;;;;;5.57;4.68;;;;;;;5.57;100.00;99424.06;5020501;28;20049;-85
2021/11/02 06:37:19;;;;;;;7.78;4.50;;;;;;;5.62;100.00;99420.56;5013602;28;20053;-85
2021/11/02 06:43:06;;;;;;;9.90;5.72;;;;;;;5.67;100.00;99422.25;4994033;28;20054;-83
2021/11/02 06:45:59;;;;;;;9.52;4.43;;;;;;;5.66;100.00;99428.31;5032014;28;20078;-85
2021/11/02 06:48:43;;;;;;;8.77;5.43;;;;;;;5.60;100.00;99422.28;5049092;28;20048;-85
2021/11/02 06:51:36;;;;;;;11.05;5.00;;;;;;;5.56;100.00;99430.13;5049305;28;20128;-85
2021/11/02 07:00:27;;;;;;;8.80;5.60;;;;;;;5.59;100.00;99433.56;5037058;28;20049;-85
2021/11/02 07:17:25;;;;;;;9.43;6.03;;;;;;;5.96;100.00;99447.97;5018245;28;20051;-85
2021/11/02 07:19:59;;;;;;;16.77;5.75;;;;;;;6.09;100.00;99446.97;5034253;28;20068;-83
2021/11/02 07:25:36;;;;;;;29.65;5.60;;;;;;;6.29;100.00;99451.09;4995947;28;20539;-84
2021/11/02 08:47:24;;;;;;;10.50;4.63;;;;;;;9.13;89.49;99424.72;5034163;28;20088;-87
2021/11/02 08:49:53;;;;;;;6.47;3.83;;;;;;;9.10;90.27;99423.03;5019927;28;20045;-84
2021/11/02 08:52:22;;;;;;;8.00;4.38;;;;;;;9.16;90.20;99419.41;5015616;28;20802;-85
2021/11/02 08:54:52;;;;;;;4.90;4.25;;;;;;;9.23;89.69;99415.78;5015312;28;20655;-85
2021/11/02 08:57:22;;;;;;;6.13;3.95;;;;;;;9.34;89.76;99417.28;5014125;28;20046;-86
2021/11/02 08:59:52;;;;;;;4.32;3.65;;;;;;;9.44;89.25;99417.00;5036653;28;20053;-86
2021/11/02 09:02:47;;;;;;;8.05;3.65;;;;;;;9.50;88.61;99417.75;5047380;28;20049;-86
2021/11/02 09:05:26;;;;;;;4.57;3.50;;;;;;;9.56;88.19;99426.28;5017070;28;20053;-86
2021/11/02 09:07:57;;;;;;;5.75;3.13;;;;;;;9.62;88.18;99422.69;5010538;28;20263;-86
2021/11/02 09:10:24;;;;;;;4.25;3.80;;;;;;;9.73;88.31;99428.50;5032351;28;20051;-87
2021/11/02 09:12:54;;;;;;;4.68;3.20;;;;;;;9.84;87.23;99424.75;5031324;28;20075;-85
2021/11/02 09:15:28;;;;;;;7.28;2.97;;;;;;;10.02;86.46;99424.25;5018038;28;20057;-86
2021/11/02 09:18:03;;;;;;;6.70;3.70;;;;;;;10.13;85.96;99418.75;5058698;28;20148;-85
2021/11/02 09:20:30;;;;;;;4.72;2.75;;;;;;;10.17;85.78;99417.78;5056082;28;20033;-85
2021/11/02 09:25:56;;;;;;;4.55;3.53;;;;;;;10.24;85.24;99423.69;5027643;28;20062;-85
2021/11/02 09:28:26;;;;;;;3.03;2.72;;;;;;;10.26;84.94;99420.13;5058665;28;20044;-86
2021/11/02 09:30:57;;;;;;;5.03;3.20;;;;;;;10.37;84.75;99408.56;5045380;28;20037;-83
2021/11/02 09:33:24;;;;;;;3.45;3.03;;;;;;;10.51;84.08;99411.63;5053511;28;20045;-86
2021/11/02 09:36:15;;;;;;;4.88;2.92;;;;;;;10.68;82.75;99411.13;5038842;28;20037;-85
2021/11/02 09:38:47;;;;;;;3.60;2.50;;;;;;;10.79;82.65;99409.97;5033884;28;20146;-84
2021/11/02 09:41:30;;;;;;;8.98;3.08;;;;;;;10.91;82.25;99414.81;5034131;28;20036;-85
2021/11/02 09:44:18;;;;;;;5.07;2.58;;;;;;;10.86;80.17;99411.47;5037982;28;20187;-83
2021/11/02 09:47:32;;;;;;;3.08;2.10;;;;;;;10.71;78.77;99415.44;5052047;28;20048;-85
2021/11/02 09:50:28;;;;;;;2.40;2.15;;;;;;;10.70;80.64;99411.09;5053874;28;20049;-87
2021/11/02 09:53:28;;;;;;;7.07;5.25;;;;;;;10.69;80.47;99412.88;5048150;28;20033;-85
2021/11/02 09:56:08;;;;;;;3.30;2.50;;;;;;;10.66;79.91;99419.94;5033137;28;20045;-86
2021/11/02 10:02:32;;;;;;;3.63;2.40;;;;;;;10.57;80.74;99426.28;5039612;28;20340;-86
2021/11/02 10:05:41;;;;;;;6.13;2.47;;;;;;;10.42;79.55;99417.13;5053614;28;20040;-84
2021/11/02 10:08:57;;;;;;;4.07;1.98;;;;;;;10.36;80.68;99422.53;5066545;28;20840;-84
2021/11/02 10:12:07;;;;;;;2.40;1.73;;;;;;;10.35;80.98;99413.84;5056664;28;20055;-87
2021/11/02 10:15:13;;;;;;;3.90;2.63;;;;;;;10.36;81.16;99419.91;5059630;28;20063;-86
2021/11/02 10:22:22;;;;;;;5.72;2.55;;;;;;;10.45;80.15;99409.19;5052603;28;20041;-85
2021/11/02 10:25:12;;;;;;;3.90;2.00;;;;;;;10.62;78.78;99407.84;5038683;28;20049;-86
2021/11/02 10:27:58;;;;;;;4.43;2.53;;;;;;;10.86;77.61;99401.88;5038859;28;20113;-85
2021/11/02 10:31:13;;;;;;;3.03;2.10;;;;;;;11.13;76.98;99394.06;5052569;28;20045;-83
2021/11/02 10:34:28;;;;;;;10.65;3.88;;;;;;;11.43;76.29;99396.63;5040769;28;20052;-86
2021/11/02 10:37:10;;;;;;;3.22;2.38;;;;;;;11.74;74.32;99387.72;5050906;28;20053;-87
2021/11/02 10:40:05;;;;;;;5.38;2.30;;;;;;;11.83;74.12;99389.19;5055822;28;20033;-85
2021/11/02 10:42:51;;;;;;;2.42;2.20;;;;;;;12.00;71.16;99388.63;5053996;28;20052;-88
2021/11/02 10:45:18;;;;;;;2.47;1.90;;;;;;;12.10;72.41;99389.16;5046260;28;20160;-85
2021/11/02 10:48:09;;;;;;;2.95;2.38;;;;;;;12.18;71.92;99390.59;5032661;28;20202;-86
2021/11/02 10:50:49;;;;;;;5.10;1.90;;;;;;;12.27;71.12;99384.16;5054733;28;20041;-83
2021/11/02 10:53:36;;;;;;;2.33;2.13;;;;;;;12.21;69.39;99394.88;5052936;28;20065;-84
2021/11/02 10:56:08;;;;;;;3.58;1.85;;;;;;;12.14;71.67;99394.25;5039142;28;20138;-85
2021/11/02 10:58:44;;;;;;;6.65;2.08;;;;;;;12.15;71.12;99393.34;5051046;28;20084;-87
2021/11/02 11:01:13;;;;;;;5.85;1.75;;;;;;;12.06;70.91;99398.91;5050637;28;20055;-84
2021/11/02 11:03:44;;;;;;;4.20;2.08;;;;;;;11.92;71.04;99399.34;5036665;28;20143;-85
2021/11/02 11:06:15;;;;;;;2.92;1.80;;;;;;;11.86;70.93;99400.44;5035402;28;20045;-85
2021/11/02 11:08:46;;;;;;;4.15;1.70;;;;;;;11.78;71.80;99399.81;5056112;28;20044;-85
2021/11/02 11:11:17;;;;;;;3.53;2.00;;;;;;;11.74;71.49;99399.06;5072870;28;20049;-85
2021/11/02 11:16:36;;;;;;;2.35;1.60;;;;;;;11.69;72.28;99385.28;5055896;28;20065;-87
2021/11/02 11:19:21;;;;;;;2.85;1.90;;;;;;;11.63;71.85;99392.47;5061411;28;20080;-83
2021/11/02 11:21:49;;;;;;;4.93;2.00;;;;;;;11.63;72.65;99387.22;5056742;28;20571;-84
2021/11/02 11:24:50;;;;;;;2.92;1.30;;;;;;;11.65;72.61;99393.28;5037808;28;20037;-85
2021/11/02 11:27:19;;;;;;;2.83;2.05;;;;;;;11.65;72.76;99395.91;5036498;28;20108;-85
2021/11/02 11:29:50;;;;;;;7.40;2.80;;;;;;;11.60;72.93;99388.19;5050040;28;20071;-84
2021/11/02 11:32:18;;;;;;;2.33;2.10;;;;;;;11.55;72.36;99385.75;5054554;28;20583;-84
2021/11/02 11:34:49;;;;;;;2.78;2.30;;;;;;;11.46;72.25;99388.66;5057194;28;20627;-87
2021/11/02 11:37:16;;;;;;;2.08;1.73;;;;;;;11.27;73.20;99385.78;5058061;28;20614;-84
2021/11/02 11:39:46;;;;;;;1.98;1.80;;;;;;;11.22;74.03;99388.56;5059695;28;20095;-86
2021/11/02 11:42:18;;;;;;;4.90;1.90;;;;;;;11.19;73.90;99387.78;5043315;28;20353;-87
2021/11/02 11:44:52;;;;;;;3.83;1.75;;;;;;;11.12;74.07;99386.25;5041412;28;20052;-85
2021/11/02 11:47:26;;;;;;;4.15;1.50;;;;;;;11.07;74.54;99386.44;5036246;28;20045;-86
2021/11/02 11:49:55;;;;;;;3.58;1.80;;;;;;;11.09;74.67;99395.94;5040798;28;20037;-85
2021/11/02 11:52:26;;;;;;;1.70;1.60;;;;;;;11.12;74.86;99387.13;5045279;28;20034;-87
2021/11/02 11:54:56;;;;;;;7.63;2.15;;;;;;;11.14;74.60;99387.94;5051118;28;20060;-83
2021/11/02 11:57:37;;;;;;;3.92;2.22;;;;;;;11.09;73.86;99390.72;5056424;28;20051;-86
2021/11/02 12:00:13;;;;;;;10.38;2.45;;;;;;;11.05;74.84;99377.75;5042592;28;20091;-85
2021/11/02 12:03:06;;;;;;;4.47;2.13;;;;;;;10.98;75.02;99386.72;5060723;28;20113;-86
2021/11/02 12:05:46;;;;;;;4.15;1.98;;;;;;;10.90;75.11;99379.09;5058275;28;20112;-85
2021/11/02 12:08:44;;;;;;;3.00;2.50;;;;;;;10.90;74.91;99382.56;5043530;28;20060;-86
2021/11/02 12:11:23;;;;;;;2.53;1.90;;;;;;;10.93;74.75;99384.22;5043339;28;20252;-85
2021/11/02 12:13:57;;;;;;;2.75;2.17;;;;;;;10.95;74.91;99381.56;5057786;28;20041;-86
2021/11/02 12:16:43;;;;;;;2.20;1.30;;;;;;;11.03;74.46;99380.41;5030840;28;20045;-86
2021/11/02 12:19:27;;;;;;;2.75;1.70;;;;;;;11.07;74.14;99370.72;5051995;28;20049;-84
2021/11/02 12:22:07;;;;;;;1.75;1.65;;;;;;;11.14;74.33;99366.13;5043546;28;20037;-82
2021/11/02 12:24:52;;;;;;;1.73;1.60;;;;;;;11.22;74.20;99366.72;5048462;28;20064;-84
2021/11/02 12:27:25;;;;;;;2.50;1.90;;;;;;;11.26;74.14;99365.72;5034775;28;20049;-86
2021/11/02 12:30:19;;;;;;;1.80;1.70;;;;;;;11.26;74.29;99370.97;5042272;28;20079;-83
2021/11/02 12:37:00;;;;;;;1.63;1.52;;;;;;;11.33;73.95;99366.38;5039295;28;20091;-84
2021/11/02 12:39:38;;;;;;;3.75;2.25;;;;;;;11.35;74.25;99367.19;5044233;28;20072;-85
2021/11/02 12:42:06;;;;;;;3.75;2.33;;;;;;;11.38;74.22;99365.34;5026425;28;20042;-84
2021/11/02 12:44:46;;;;;;;2.50;1.85;;;;;;;11.42;74.10;99364.31;5029179;28;20045;-83
2021/11/02 12:47:18;;;;;;;2.53;1.80;;;;;;;11.46;73.79;99375.56;5037832;28;20046;-86
2021/11/02 12:49:55;;;;;;;2.30;2.10;;;;;;;11.45;73.32;99367.75;5033721;28;20767;-85
2021/11/02 12:52:32;;;;;;;11.77;2.42;;;;;;;11.38;73.08;99367.97;5023931;28;20053;-86
2021/11/02 12:55:14;;;;;;;2.15;1.98;;;;;;;11.31;73.64;99363.81;5021271;28;20052;-85
2021/11/02 12:57:55;;;;;;;3.60;1.90;;;;;;;11.28;73.97;99358.69;5016469;28;20041;-84
2021/11/02 13:00:27;;;;;;;3.97;1.88;;;;;;;11.31;74.08;99355.09;5024545;28;20069;-84
2021/11/02 13:03:04;;;;;;;3.90;2.15;;;;;;;11.31;73.33;99355.94;5028738;28;20237;-86
2021/11/02 13:05:32;;;;;;;2.53;2.05;;;;;;;11.34;73.66;99360.22;5047244;28;20148;-86
2021/11/02 13:08:14;;;;;;;3.35;1.80;;;;;;;11.34;73.51;99357.63;5031745;28;20072;-86
2021/11/02 13:10:44;;;;;;;3.20;2.10;;;;;;;11.36;73.34;99361.06;5013928;28;20140;-86
2021/11/02 13:13:19;;;;;;;2.35;2.13;;;;;;;11.30;72.15;99348.16;5030040;28;20057;-86
2021/11/02 13:15:58;;;;;;;3.17;2.55;;;;;;;11.17;72.71;99352.94;5027699;28;20046;-86
2021/11/02 13:18:38;;;;;;;4.35;1.95;;;;;;;11.08;73.24;99354.94;5002937;28;20113;-86
2021/11/02 13:21:34;;;;;;;4.63;2.22;;;;;;;11.03;73.37;99348.13;5017213;28;20130;-87
2021/11/02 13:24:21;;;;;;;2.03;1.92;;;;;;;11.07;73.38;99361.09;5029349;28;20172;-88
2021/11/02 13:26:54;;;;;;;2.28;2.17;;;;;;;11.12;73.17;99354.84;5025502;28;20124;-85
2021/11/02 13:29:26;;;;;;;2.90;2.00;;;;;;;11.14;73.03;99361.75;5032421;28;20144;-87
2021/11/02 13:31:57;;;;;;;1.65;1.55;;;;;;;11.18;73.24;99365.13;5009898;28;20052;-87
2021/11/02 13:34:40;;;;;;;3.33;1.77;;;;;;;11.23;73.01;99355.34;5012570;28;20054;-87
2021/11/02 13:37:10;;;;;;;2.33;2.08;;;;;;;11.28;72.88;99360.44;5033012;28;20065;-87
2021/11/02 13:40:02;;;;;;;2.78;2.10;;;;;;;11.27;71.92;99367.44;5014296;28;20468;-86
2021/11/02 13:42:53;;;;;;;2.20;2.05;;;;;;;11.20;72.48;99365.94;5016826;28;20072;-87
2021/11/02 13:45:24;;;;;;;3.28;1.70;;;;;;;11.17;72.88;99358.16;5023023;28;20056;-84
2021/11/02 13:47:54;;;;;;;1.17;1.17;;;;;;;11.20;72.65;99361.56;5041878;28;20055;-84
2021/11/02 13:50:23;;;;;;;1.60;1.50;;;;;;;11.23;72.81;99360.59;5054826;28;20045;-84
2021/11/02 13:52:52;;;;;;;2.53;1.77;;;;;;;11.29;72.99;99362.16;5049185;28;20676;-85
2021/11/02 13:55:28;;;;;;;1.60;1.50;;;;;;;11.35;72.35;99359.34;5063650;28;20041;-85
2021/11/02 13:57:55;;;;;;;3.15;2.10;;;;;;;11.39;72.74;99363.56;5042309;28;20040;-87
2021/11/02 14:00:22;;;;;;;2.47;1.55;;;;;;;11.44;72.36;99360.81;5043469;28;20049;-86
2021/11/02 14:02:50;;;;;;;3.92;1.95;;;;;;;11.56;72.19;99353.38;5027204;28;20034;-87
2021/11/02 14:05:20;;;;;;;3.88;1.92;;;;;;;11.72;71.26;99355.47;5010910;28;20104;-87
2021/11/02 14:07:48;;;;;;;4.28;2.10;;;;;;;11.90;70.48;99352.22;5012505;28;20059;-87
2021/11/02 14:10:15;;;;;;;3.70;2.25;;;;;;;12.05;70.13;99352.59;5027901;28;20045;-85
2021/11/02 14:12:54;;;;;;;2.17;1.77;;;;;;;12.15;69.54;99353.13;5026744;28;20049;-85
2021/11/02 14:15:29;;;;;;;2.10;1.60;;;;;;;12.16;68.62;99353.09;5008919;28;20046;-85
2021/11/02 14:18:00;;;;;;;1.90;1.73;;;;;;;12.05;68.76;99353.44;5032103;28;20038;-86
2021/11/02 14:20:52;;;;;;;5.07;2.13;;;;;;;11.88;69.38;99355.81;5023802;28;20279;-85
2021/11/02 14:23:37;;;;;;;3.03;1.83;;;;;;;11.73;69.58;99357.19;5017859;28;20038;-84
2021/11/02 14:26:26;;;;;;;1.70;1.60;;;;;;;11.58;70.35;99362.03;5017481;28;20421;-85
2021/11/02 14:29:00;;;;;;;2.45;1.88;;;;;;;11.48;70.95;99371.13;5008663;28;20322;-84
2021/11/02 14:31:37;;;;;;;4.60;2.03;;;;;;;11.43;70.98;99359.94;5020612;28;20072;-84
2021/11/02 14:34:29;;;;;;;2.35;1.80;;;;;;;11.36;70.91;99361.06;5040517;28;20046;-84
2021/11/02 14:37:24;;;;;;;2.00;1.80;;;;;;;11.15;71.07;99371.31;5038285;28;20044;-85
2021/11/02 14:40:08;;;;;;;2.08;1.58;;;;;;;10.91;72.09;99368.56;5023373;28;20556;-85
2021/11/02 14:43:01;;;;;;;2.15;1.60;;;;;;;10.68;73.19;99373.66;5039555;28;20101;-85
2021/11/02 14:45:44;;;;;;;1.58;1.48;;;;;;;10.44;74.10;99378.69;5022155;28;20045;-85
2021/11/02 14:48:52;;;;;;;2.78;1.58;;;;;;;10.22;75.46;99366.22;5049954;28;20057;-84
2021/11/02 14:51:20;;;;;;;1.77;1.67;;;;;;;10.06;75.99;99377.97;5036243;28;20042;-83
2021/11/02 14:53:49;;;;;;;3.65;2.05;;;;;;;9.92;76.50;99379.22;5034167;28;20053;-84
2021/11/02 14:56:20;;;;;;;3.35;1.80;;;;;;;9.82;77.50;99377.75;5020921;28;20080;-88
2021/11/02 14:58:53;;;;;;;1.83;1.73;;;;;;;9.74;77.68;99375.34;5030515;28;20128;-86
2021/11/02 15:01:36;;;;;;;2.97;1.20;;;;;;;9.67;78.07;99375.53;5027270;28;20049;-85
2021/11/02 15:04:10;;;;;;;2.20;2.00;;;;;;;9.58;78.73;99371.38;5032726;28;20462;-86
2021/11/02 15:06:47;;;;;;;3.83;2.00;;;;;;;9.53;79.08;99376.75;5004948;28;20072;-85
2021/11/02 15:09:21;;;;;;;3.78;2.22;;;;;;;9.51;79.34;99375.06;5000339;28;20057;-83
2021/11/02 15:11:51;;;;;;;2.25;1.95;;;;;;;9.51;79.42;99377.69;5017543;28;20057;-84
2021/11/02 15:14:27;;;;;;;5.72;2.50;;;;;;;9.55;79.51;99376.69;5014957;28;20053;-84
2021/11/02 15:17:00;;;;;;;3.30;2.70;;;;;;;9.58;79.70;99379.22;5017149;28;20049;-84
2021/11/02 15:19:31;;;;;;;3.30;2.40;;;;;;;9.59;79.49;99388.78;5019776;28;20080;-87
2021/11/02 15:22:12;;;;;;;6.25;3.35;;;;;;;9.54;80.14;99386.31;5017000;28;20508;-84
2021/11/02 15:24:55;;;;;;;2.03;1.92;;;;;;;9.49;80.24;99384.69;5047997;28;20072;-86
2021/11/02 15:27:33;;;;;;;2.50;2.25;;;;;;;9.38;81.01;99387.56;5048523;28;20099;-88
2021/11/02 15:30:26;;;;;;;4.28;2.28;;;;;;;9.29;81.92;99386.03;5020519;28;20160;-87
2021/11/02 15:32:53;;;;;;;4.35;1.95;;;;;;;9.23;81.88;99388.78;5016764;28;20048;-84
2021/11/02 15:35:23;;;;;;;5.20;2.70;;;;;;;9.14;82.04;99389.88;5018218;28;20057;-84
2021/11/02 15:38:02;;;;;;;4.47;2.00;;;;;;;9.02;82.71;99382.31;5029000;28;20054;-84
2021/11/02 15:40:39;;;;;;;3.70;2.33;;;;;;;8.88;83.42;99378.28;5029183;28;20073;-85
2021/11/02 15:43:16;;;;;;;2.25;2.05;;;;;;;8.75;84.19;99380.31;5050777;28;20041;-84
2021/11/02 15:45:55;;;;;;;4.55;3.25;;;;;;;8.64;84.82;99377.06;5018528;28;20065;-86
2021/11/02 15:48:32;;;;;;;5.72;2.75;;;;;;;8.55;86.11;99387.69;5033482;28;20117;-85
2021/11/02 15:50:59;;;;;;;;;;;;;;;8.47;87.19;99376.56;5046667;28;20068;-87
2021/11/02 15:53:28;;;;;;;4.90;2.67;;;;;;;8.38;86.64;99383.66;5026789;28;20635;-86
2021/11/02 15:55:57;;;;;;;5.45;3.47;;;;;;;8.29;87.60;99386.44;5006005;28;20050;-84
2021/11/02 15:58:26;;;;;;;6.03;3.25;;;;;;;8.22;87.60;99382.25;5030197;28;20037;-86
2021/11/02 16:00:56;;;;;;;4.13;2.70;;;;;;;8.15;88.06;99388.47;5012424;28;20077;-86
2021/11/02 16:03:39;;;;;;;3.90;2.72;;;;;;;8.09;88.94;99392.91;5008032;28;20107;-85
2021/11/02 16:06:06;;;;;;;4.57;2.70;;;;;;;8.00;89.18;99387.88;5025831;28;20038;-85
2021/11/02 16:08:33;;;;;;;5.40;3.25;;;;;;;7.93;89.90;99386.28;5026464;28;20481;-86
2021/11/02 16:11:10;;;;;;;2.95;2.55;;;;;;;7.85;90.33;99380.31;5025248;28;20635;-85
2021/11/02 16:13:41;;;;;;;3.50;3.17;;;;;;;7.77;90.59;99389.16;5013971;28;20435;-85
2021/11/02 16:16:09;;;;;;;3.45;2.50;;;;;;;7.71;90.98;99385.81;5014502;28;20041;-86
2021/11/02 16:18:38;;;;;;;4.55;3.15;;;;;;;7.69;91.42;99393.66;5039158;28;20048;-85
2021/11/02 16:21:09;;;;;;;4.93;3.83;;;;;;;7.66;92.09;99387.63;5030704;28;20107;-86
2021/11/02 16:24:08;;;;;;;4.47;3.80;;;;;;;7.66;92.80;99387.63;5030201;28;20041;-84
2021/11/02 16:26:41;;;;;;;4.03;3.45;;;;;;;7.67;92.27;99382.38;5002413;28;20056;-86
2021/11/02 16:29:19;;;;;;;4.68;4.20;;;;;;;7.65;92.17;99389.34;5022556;28;20073;-86
2021/11/02 16:31:46;;;;;;;8.63;4.13;;;;;;;7.60;92.46;99389.47;5018839;28;20046;-86
2021/11/02 16:34:23;;;;;;;7.60;4.75;;;;;;;7.61;92.76;99387.69;5033222;28;20045;-85
2021/11/02 16:36:50;;;;;;;6.20;4.03;;;;;;;7.61;93.01;99385.09;5009751;28;20136;-85
2021/11/02 16:39:22;;;;;;;5.88;3.72;;;;;;;7.61;93.12;99396.38;5028471;28;20046;-85
2021/11/02 16:42:10;;;;;;;11.10;7.25;;;;;;;7.58;93.04;99387.75;5011395;28;20059;-86
2021/11/02 16:44:42;;;;;;;11.32;7.60;;;;;;;7.58;93.36;99387.75;5042148;28;20056;-85
2021/11/02 16:47:15;;;;;;;11.70;6.88;;;;;;;7.54;93.51;99391.31;5014192;28;20041;-86
2021/11/02 16:49:45;;;;;;;;;;;;;;;7.50;94.20;99387.03;5011334;28;20077;-87
2021/11/02 16:52:40;;;;;;;7.85;5.40;;;;;;;7.45;94.12;99384.50;5012694;28;19987;-85
2021/11/02 16:55:14;;;;;;;10.20;5.80;;;;;;;7.44;94.57;99385.38;5013211;28;20045;-84
2021/11/02 16:57:42;;;;;;;7.22;4.97;;;;;;;7.44;95.00;99394.06;5031665;28;20053;-84